Touchet, Washington
Current Conditions -  °F | °C
As of 7:20 PM on Monday 26 Jan 2015 (Local Time) from KALW Reporting Station
Moderate Fog Moderate Fog  
Wind Chill: 37°   Ceiling: 200
Heat Index: 37°   Visibility: 0.25mi
Dew Point: 36°   Wind: 0mph
Humidity: 96%   Direction: NA
Pressure: 30.01"   Gusts: NA
Location:  46.04°N, 118.67°W
Report Text: KALW 270320Z AUTO 00000KT 1/4SM R20/1400VP6000FT FG VV002 03/02 A3001 RMK AO2 T00280022
Loading
Personal Weather Stations






























Interactive Weather Map New forecast layout! Learn more

10-Day Weather Forecast

Advertisements
Track Severe Weather on mobile